Time;durP1;ratioP1;P1;durP2;ratioP2;P2;SDS_P1;SDS_P2;PMS_P1;PMS_P2;Temp;Humidity;BMP_temperature;BMP_pressure;BME280_temperature;BME280_humidity;BME280_pressure;Samples;Min_cycle;Max_cycle;Signal;HPM_P1;HPM_P2
2022/11/09 00:00:06;;;;;;;5.60;2.50;;;14.00;99.90;;;;;;5027368;28;98713;-73
2022/11/09 00:02:34;;;;;;;6.43;2.78;;;13.90;99.90;;;;;;5010948;28;98582;-72
2022/11/09 00:05:01;;;;;;;3.25;2.13;;;13.90;99.90;;;;;;5026602;28;100932;-73
2022/11/09 00:07:31;;;;;;;6.45;2.30;;;13.90;99.90;;;;;;5011944;28;98589;-73
2022/11/09 00:09:58;;;;;;;4.57;2.25;;;13.90;99.90;;;;;;5011541;28;100176;-72
2022/11/09 00:12:25;;;;;;;5.38;2.17;;;13.90;99.90;;;;;;5011745;28;99245;-73
2022/11/09 00:14:52;;;;;;;4.80;2.50;;;13.90;99.90;;;;;;5011665;28;99142;-73
2022/11/09 00:17:19;;;;;;;9.45;3.00;;;13.90;99.90;;;;;;5010892;28;98604;-73
2022/11/09 00:19:46;;;;;;;3.47;2.72;;;13.90;99.90;;;;;;5010442;28;98645;-72
2022/11/09 00:22:13;;;;;;;3.33;2.47;;;13.80;99.90;;;;;;5011377;28;99280;-73
2022/11/09 00:24:40;;;;;;;4.88;2.45;;;13.80;99.90;;;;;;5011219;28;99108;-73
2022/11/09 00:27:07;;;;;;;4.30;2.03;;;13.80;99.90;;;;;;5012229;28;97946;-73
2022/11/09 00:29:33;;;;;;;8.50;2.80;;;13.80;99.90;;;;;;5027148;28;98564;-72
2022/11/09 00:32:00;;;;;;;5.60;2.78;;;13.90;99.90;;;;;;5013325;28;99300;-73
2022/11/09 00:34:27;;;;;;;4.10;2.53;;;13.90;99.90;;;;;;5014536;28;99349;-73
2022/11/09 00:36:54;;;;;;;5.97;2.85;;;13.90;99.90;;;;;;5015249;28;98569;-72
2022/11/09 00:39:21;;;;;;;3.65;2.50;;;13.90;99.90;;;;;;5013617;28;98593;-72
2022/11/09 00:41:48;;;;;;;5.65;2.83;;;13.90;99.90;;;;;;5030070;28;101848;-72
2022/11/09 00:44:15;;;;;;;5.78;2.80;;;13.90;99.90;;;;;;5014755;28;98979;-72
2022/11/09 00:46:43;;;;;;;7.45;3.03;;;13.90;99.90;;;;;;5030459;28;98490;-73
2022/11/09 00:49:10;;;;;;;3.85;2.40;;;13.90;99.90;;;;;;5013369;28;98515;-73
2022/11/09 00:51:37;;;;;;;4.07;2.35;;;13.90;99.90;;;;;;5014698;28;98535;-73
2022/11/09 00:54:06;;;;;;;4.75;2.33;;;13.90;99.90;;;;;;4996593;28;100779;-72
2022/11/09 00:56:33;;;;;;;5.03;2.80;;;13.90;99.90;;;;;;5030235;28;98981;-72
2022/11/09 00:59:01;;;;;;;4.65;2.50;;;13.90;99.90;;;;;;5029861;28;99331;-72
2022/11/09 01:01:28;;;;;;;4.43;2.50;;;13.90;99.90;;;;;;5014274;28;99349;-72
2022/11/09 01:03:56;;;;;;;5.28;2.47;;;13.90;99.90;;;;;;5013127;28;101710;-72
2022/11/09 01:06:25;;;;;;;4.53;2.65;;;14.00;99.90;;;;;;5012919;28;98646;-73
2022/11/09 01:08:52;;;;;;;3.65;2.35;;;14.00;99.90;;;;;;5013341;28;99088;-73
2022/11/09 01:11:21;;;;;;;4.03;2.13;;;14.00;99.90;;;;;;5012484;28;101911;-73
2022/11/09 01:13:51;;;;;;;6.15;2.97;;;14.10;99.90;;;;;;5012899;28;101336;-73
2022/11/09 01:16:20;;;;;;;4.65;2.30;;;14.10;99.90;;;;;;5030119;28;97921;-73
2022/11/09 01:18:50;;;;;;;4.35;2.60;;;14.20;99.90;;;;;;5014435;28;98499;-73
2022/11/09 01:21:17;;;;;;;5.05;2.40;;;14.20;99.90;;;;;;4996838;28;99341;-72
2022/11/09 01:23:44;;;;;;;6.47;2.55;;;14.20;99.90;;;;;;4995748;28;101837;-73
2022/11/09 01:26:13;;;;;;;3.53;2.33;;;14.20;99.90;;;;;;5013081;28;98644;-72
2022/11/09 01:28:42;;;;;;;4.63;2.33;;;14.20;99.90;;;;;;5013036;28;98666;-73
2022/11/09 01:31:17;;;;;;;4.85;2.28;;;14.20;99.90;;;;;;5029077;28;102013;-72
2022/11/09 01:33:45;;;;;;;7.50;2.67;;;14.20;99.90;;;;;;5012611;28;101722;-73
2022/11/09 01:36:21;;;;;;;5.43;2.60;;;14.20;99.90;;;;;;5014157;28;98503;-73
2022/11/09 01:38:49;;;;;;;6.90;2.47;;;14.20;99.90;;;;;;5014058;28;98463;-73
2022/11/09 01:41:23;;;;;;;4.85;2.60;;;14.10;99.90;;;;;;5013907;28;98704;-73
2022/11/09 01:44:03;;;;;;;;;;;14.00;99.90;;;;;;4995979;28;101455;-72
2022/11/09 01:46:58;;;;;;;3.90;2.33;;;13.90;99.90;;;;;;5013620;28;98567;-73
2022/11/09 01:49:40;;;;;;;6.03;2.20;;;13.90;99.90;;;;;;5013520;28;99731;-73
2022/11/09 01:52:16;;;;;;;4.93;2.58;;;13.80;99.90;;;;;;5028073;28;101618;-72
2022/11/09 01:54:48;;;;;;;5.75;2.42;;;13.80;99.90;;;;;;5012059;28;101678;-73
2022/11/09 01:57:41;;;;;;;5.15;2.85;;;13.70;99.90;;;;;;5013960;28;98555;-73
2022/11/09 02:00:12;;;;;;;6.03;2.50;;;13.80;99.90;;;;;;5012638;28;98565;-73
2022/11/09 02:02:45;;;;;;;7.72;2.63;;;13.70;99.90;;;;;;5028696;28;101575;-73
2022/11/09 02:05:16;;;;;;;9.77;2.95;;;13.70;99.90;;;;;;5028723;28;100982;-72
2022/11/09 02:07:47;;;;;;;5.55;2.40;;;13.60;99.90;;;;;;5013328;28;97721;-72
2022/11/09 02:10:35;;;;;;;4.28;2.25;;;13.60;99.90;;;;;;5012073;28;98627;-73
2022/11/09 02:13:02;;;;;;;6.20;3.25;;;13.60;99.90;;;;;;5028468;28;102247;-72
2022/11/09 02:15:36;;;;;;;6.18;2.75;;;13.50;99.90;;;;;;5012159;28;101595;-73
2022/11/09 02:18:10;;;;;;;5.82;2.45;;;13.50;99.90;;;;;;4996547;28;98640;-73
2022/11/09 02:20:45;;;;;;;5.45;2.63;;;13.50;99.90;;;;;;5028668;28;98582;-73
2022/11/09 02:23:12;;;;;;;6.47;2.30;;;13.50;99.90;;;;;;5028710;28;99330;-72
2022/11/09 02:25:39;;;;;;;6.63;2.20;;;13.50;99.90;;;;;;5028089;28;101405;-73
2022/11/09 02:28:07;;;;;;;6.65;2.53;;;13.40;99.90;;;;;;4995857;28;98617;-73
2022/11/09 02:30:35;;;;;;;5.28;2.50;;;13.40;99.90;;;;;;5011756;28;98593;-72
2022/11/09 02:33:03;;;;;;;5.57;2.53;;;13.40;99.90;;;;;;4995744;28;100495;-73
2022/11/09 02:35:30;;;;;;;5.45;2.20;;;13.40;99.90;;;;;;5027957;28;100612;-72
2022/11/09 02:37:57;;;;;;;5.82;2.40;;;13.40;99.90;;;;;;5011648;28;98523;-72
2022/11/09 02:40:35;;;;;;;5.03;2.38;;;13.40;99.90;;;;;;4978151;28;99353;-72
2022/11/09 02:43:05;;;;;;;6.05;2.85;;;13.40;99.90;;;;;;5028324;28;101629;-73
2022/11/09 02:45:32;;;;;;;6.10;2.72;;;13.30;99.90;;;;;;4994574;28;101788;-72
2022/11/09 02:48:00;;;;;;;8.20;2.65;;;13.30;99.90;;;;;;4995484;28;98572;-72
2022/11/09 02:50:27;;;;;;;3.17;1.98;;;13.30;99.90;;;;;;5028216;28;98599;-72
2022/11/09 02:52:54;;;;;;;8.88;2.08;;;13.30;99.90;;;;;;4994195;28;101673;-72
2022/11/09 02:55:22;;;;;;;8.60;2.50;;;13.30;99.90;;;;;;5010497;28;101003;-73
2022/11/09 02:57:49;;;;;;;7.63;2.45;;;13.30;99.90;;;;;;5028705;28;97847;-72
2022/11/09 03:00:17;;;;;;;5.60;2.17;;;13.20;99.90;;;;;;5028214;28;98613;-73
2022/11/09 03:02:44;;;;;;;8.43;2.33;;;13.20;99.90;;;;;;5027548;28;101897;-72
2022/11/09 03:05:11;;;;;;;7.03;2.65;;;13.20;99.90;;;;;;5027186;28;101562;-73
2022/11/09 03:07:41;;;;;;;8.13;3.17;;;13.20;99.90;;;;;;4995229;28;98672;-73
2022/11/09 03:10:08;;;;;;;7.82;2.58;;;13.20;99.90;;;;;;4994927;28;98531;-73
2022/11/09 03:12:36;;;;;;;11.30;2.50;;;13.10;99.90;;;;;;4994335;28;101675;-73
2022/11/09 03:15:07;;;;;;;7.00;2.55;;;13.10;99.90;;;;;;5027191;28;101567;-73
2022/11/09 03:17:37;;;;;;;7.03;2.85;;;13.10;99.90;;;;;;5027266;28;98481;-73
2022/11/09 03:20:04;;;;;;;8.60;2.67;;;13.10;99.90;;;;;;5011558;28;98526;-72
2022/11/09 03:22:31;;;;;;;6.85;2.65;;;13.10;99.90;;;;;;5027726;28;100825;-73
2022/11/09 03:24:59;;;;;;;6.57;2.08;;;13.00;99.90;;;;;;5011259;28;100602;-72
2022/11/09 03:27:26;;;;;;;10.68;2.35;;;13.00;99.90;;;;;;5011019;28;98539;-73
2022/11/09 03:29:54;;;;;;;6.65;1.92;;;13.00;99.90;;;;;;5027349;28;99293;-73
2022/11/09 03:32:21;;;;;;;5.38;2.08;;;13.00;99.90;;;;;;5027214;28;102045;-72
2022/11/09 03:34:50;;;;;;;8.98;3.05;;;13.00;99.90;;;;;;4993913;28;101587;-72
2022/11/09 03:37:18;;;;;;;6.00;1.90;;;13.00;99.90;;;;;;5027929;28;98573;-72
2022/11/09 03:39:45;;;;;;;5.18;1.85;;;13.00;99.90;;;;;;5027749;28;98563;-72
2022/11/09 03:42:13;;;;;;;7.85;2.38;;;13.00;99.90;;;;;;5027467;28;101739;-72
2022/11/09 03:44:40;;;;;;;7.05;2.60;;;13.00;99.90;;;;;;4993884;28;101487;-72
2022/11/09 03:47:07;;;;;;;7.53;2.47;;;13.00;99.90;;;;;;5011538;28;97721;-72
2022/11/09 03:49:34;;;;;;;8.52;2.40;;;13.00;99.90;;;;;;5027643;28;98568;-72
2022/11/09 03:52:01;;;;;;;7.40;2.15;;;12.90;99.90;;;;;;5027088;28;101861;-73
2022/11/09 03:54:28;;;;;;;5.38;2.03;;;12.90;99.90;;;;;;5012054;28;99659;-72
2022/11/09 03:56:55;;;;;;;4.20;1.80;;;12.90;99.90;;;;;;5012335;28;98417;-73
2022/11/09 03:59:22;;;;;;;8.32;2.00;;;12.90;99.90;;;;;;5010753;28;98524;-72
2022/11/09 04:01:49;;;;;;;9.98;2.65;;;12.90;99.90;;;;;;5026887;28;102007;-72
2022/11/09 04:04:16;;;;;;;5.90;2.30;;;12.90;99.90;;;;;;5010787;28;99484;-73
2022/11/09 04:06:42;;;;;;;10.30;2.33;;;12.80;99.90;;;;;;5013676;28;98566;-72
2022/11/09 04:09:10;;;;;;;7.63;2.10;;;12.80;99.90;;;;;;5015737;28;98496;-72
2022/11/09 04:11:36;;;;;;;4.18;2.10;;;12.80;99.90;;;;;;4997301;28;101078;-72
2022/11/09 04:14:03;;;;;;;5.55;2.40;;;12.80;99.90;;;;;;5013886;28;105928;-72
2022/11/09 04:16:32;;;;;;;9.32;2.38;;;12.80;99.90;;;;;;5015593;28;98527;-73
2022/11/09 04:18:58;;;;;;;10.07;2.92;;;12.90;99.90;;;;;;5030536;28;99394;-72
2022/11/09 04:21:25;;;;;;;8.90;2.35;;;12.90;99.90;;;;;;5014992;28;99359;-72
2022/11/09 04:23:52;;;;;;;5.32;2.17;;;13.00;99.90;;;;;;5015150;28;99037;-72
2022/11/09 04:26:19;;;;;;;8.38;2.70;;;13.00;99.90;;;;;;5015275;28;98537;-72
2022/11/09 04:28:46;;;;;;;5.78;2.53;;;13.00;99.90;;;;;;5014046;28;98543;-72
2022/11/09 04:31:13;;;;;;;5.57;2.20;;;13.00;99.90;;;;;;5013821;28;99158;-72
2022/11/09 04:33:40;;;;;;;6.53;2.40;;;13.00;99.90;;;;;;5014712;28;99120;-72
2022/11/09 04:36:07;;;;;;;6.55;2.47;;;12.90;99.90;;;;;;5015594;28;97769;-73
2022/11/09 04:38:35;;;;;;;3.20;2.10;;;13.00;99.90;;;;;;5015223;28;98835;-73
2022/11/09 04:41:03;;;;;;;9.40;2.25;;;12.90;99.90;;;;;;5029956;28;99908;-73
2022/11/09 04:43:30;;;;;;;4.40;2.42;;;12.90;99.90;;;;;;5014475;28;99145;-73
2022/11/09 04:46:01;;;;;;;8.00;2.33;;;12.90;99.90;;;;;;5014921;28;98413;-72
2022/11/09 04:48:29;;;;;;;5.82;2.60;;;13.00;99.90;;;;;;5030516;28;98572;-73
2022/11/09 04:51:05;;;;;;;4.68;2.28;;;12.90;99.90;;;;;;5012963;28;104677;-73
2022/11/09 04:53:33;;;;;;;5.00;2.60;;;12.90;99.90;;;;;;5014141;28;98923;-72
2022/11/09 04:56:00;;;;;;;6.35;2.20;;;12.90;99.90;;;;;;5013615;28;98556;-73
2022/11/09 04:58:27;;;;;;;6.45;2.72;;;12.90;99.90;;;;;;5015004;28;98579;-73
2022/11/09 05:00:54;;;;;;;6.72;2.97;;;12.90;99.90;;;;;;5014702;28;98628;-72
2022/11/09 05:03:21;;;;;;;4.47;2.13;;;12.80;99.90;;;;;;5029851;28;98544;-73
2022/11/09 05:05:48;;;;;;;4.82;2.00;;;12.80;99.90;;;;;;5014328;28;98881;-72
2022/11/09 05:08:15;;;;;;;4.43;2.33;;;12.80;99.90;;;;;;5014553;28;99215;-73
2022/11/09 05:10:42;;;;;;;8.05;2.50;;;12.80;99.90;;;;;;4996187;28;99273;-72
2022/11/09 05:13:11;;;;;;;7.20;2.35;;;12.80;99.90;;;;;;5013016;28;99071;-72
2022/11/09 05:15:38;;;;;;;7.85;2.80;;;12.80;99.90;;;;;;5014630;28;99083;-72
2022/11/09 05:18:06;;;;;;;5.20;2.38;;;12.80;99.90;;;;;;5029421;27;98540;-72
2022/11/09 05:20:35;;;;;;;9.18;3.13;;;12.80;99.90;;;;;;5014228;28;99222;-73
2022/11/09 05:25:48;;;;;;;8.15;2.45;;;12.80;99.90;;;;;;5014715;28;97693;-73
2022/11/09 05:28:15;;;;;;;7.13;2.30;;;12.80;99.90;;;;;;5013274;28;98661;-72
2022/11/09 05:30:42;;;;;;;5.38;2.30;;;12.80;99.90;;;;;;5029215;28;99287;-72
2022/11/09 05:33:08;;;;;;;9.32;2.58;;;12.80;99.90;;;;;;5029004;28;101653;-73
2022/11/09 05:35:35;;;;;;;5.00;1.95;;;12.90;99.90;;;;;;5014435;28;98503;-73
2022/11/09 05:38:02;;;;;;;8.50;2.22;;;13.00;99.90;;;;;;5014277;28;99258;-72
2022/11/09 05:40:29;;;;;;;8.90;2.55;;;13.10;99.90;;;;;;5013946;28;99159;-73
2022/11/09 05:42:56;;;;;;;4.82;2.55;;;13.20;99.90;;;;;;5012438;28;101528;-72
2022/11/09 05:45:24;;;;;;;5.50;2.30;;;13.20;99.90;;;;;;5014419;28;98487;-73
2022/11/09 05:48:08;;;;;;;6.32;2.25;;;13.30;99.90;;;;;;5014146;28;99027;-73
2022/11/09 05:50:36;;;;;;;5.75;2.38;;;13.30;99.90;;;;;;5012951;28;101209;-73
2022/11/09 05:53:32;;;;;;;6.35;2.47;;;13.30;99.90;;;;;;4989510;28;100142;-72
2022/11/09 05:56:08;;;;;;;6.57;2.38;;;13.30;99.90;;;;;;4992395;28;98579;-72
2022/11/09 05:58:37;;;;;;;4.45;2.00;;;13.30;99.90;;;;;;4992393;28;99274;-72
2022/11/09 06:01:06;;;;;;;5.90;2.05;;;13.30;99.90;;;;;;4991927;28;99249;-73
2022/11/09 06:03:33;;;;;;;4.63;2.50;;;13.20;99.90;;;;;;4993754;28;99065;-72
2022/11/09 06:06:05;;;;;;;5.93;2.50;;;13.20;99.90;;;;;;4993620;28;98544;-72
2022/11/09 06:08:36;;;;;;;11.07;3.35;;;13.10;99.90;;;;;;4993875;28;99076;-73
2022/11/09 06:11:06;;;;;;;6.35;2.22;;;13.10;99.90;;;;;;4991864;28;99522;-73
2022/11/09 06:13:34;;;;;;;7.30;2.58;;;13.10;99.90;;;;;;4993316;28;98898;-73
2022/11/09 06:16:03;;;;;;;6.40;2.40;;;13.00;99.90;;;;;;4993818;28;97821;-72
2022/11/09 06:18:31;;;;;;;7.07;2.95;;;13.00;99.90;;;;;;4992384;28;98602;-73
2022/11/09 06:21:01;;;;;;;5.43;2.13;;;12.90;99.90;;;;;;4992000;28;101790;-73
2022/11/09 06:23:29;;;;;;;6.60;3.17;;;12.90;99.90;;;;;;4992660;28;99369;-72
2022/11/09 06:25:56;;;;;;;4.50;2.10;;;12.90;99.90;;;;;;4992322;28;98479;-73
2022/11/09 06:28:23;;;;;;;5.13;2.53;;;12.90;99.90;;;;;;4992527;28;98493;-72
2022/11/09 06:30:50;;;;;;;8.15;2.55;;;12.80;99.90;;;;;;5007911;28;99207;-72
2022/11/09 06:33:17;;;;;;;7.22;2.70;;;12.80;99.90;;;;;;4991633;28;100243;-73
2022/11/09 06:35:44;;;;;;;5.78;2.03;;;12.80;99.90;;;;;;4993416;28;98528;-72
2022/11/09 06:38:11;;;;;;;7.47;2.30;;;12.80;99.90;;;;;;4993118;28;98530;-73
2022/11/09 06:40:38;;;;;;;12.00;2.80;;;12.70;99.90;;;;;;5008640;28;98630;-72
2022/11/09 06:43:05;;;;;;;7.88;2.00;;;12.70;99.90;;;;;;4974908;28;101114;-73
2022/11/09 06:45:32;;;;;;;8.85;2.63;;;12.70;99.90;;;;;;4992909;28;98550;-73
2022/11/09 06:48:03;;;;;;;6.53;2.28;;;12.70;99.90;;;;;;4992326;28;99263;-72
2022/11/09 06:50:32;;;;;;;6.70;2.15;;;12.70;99.90;;;;;;4991353;28;102108;-73
2022/11/09 06:53:04;;;;;;;8.27;2.05;;;12.60;99.90;;;;;;5004777;28;99064;-72
2022/11/09 06:55:32;;;;;;;6.40;2.13;;;12.60;99.90;;;;;;5013236;28;98586;-72
2022/11/09 06:58:03;;;;;;;8.07;2.42;;;12.60;99.90;;;;;;5011084;28;103227;-72
2022/11/09 07:00:30;;;;;;;6.30;2.17;;;12.70;99.90;;;;;;5012716;28;99277;-72
2022/11/09 07:02:57;;;;;;;6.30;1.67;;;12.60;99.90;;;;;;5012452;28;101397;-72
2022/11/09 07:05:24;;;;;;;6.95;2.35;;;12.60;99.90;;;;;;5013403;28;97775;-73
2022/11/09 07:07:51;;;;;;;8.90;2.30;;;12.60;99.90;;;;;;5028402;28;98591;-73
2022/11/09 07:10:19;;;;;;;5.68;1.70;;;12.60;99.90;;;;;;5012266;28;99117;-72
2022/11/09 07:12:46;;;;;;;9.00;2.10;;;12.60;99.90;;;;;;5012049;28;99317;-72
2022/11/09 07:15:13;;;;;;;9.95;1.95;;;12.70;99.90;;;;;;5011743;28;98652;-73
2022/11/09 07:17:40;;;;;;;4.35;1.92;;;12.60;99.90;;;;;;5027925;28;98800;-72
2022/11/09 07:20:09;;;;;;;8.20;2.70;;;12.60;99.90;;;;;;5010942;28;99357;-72
2022/11/09 07:22:38;;;;;;;9.40;2.63;;;12.70;99.90;;;;;;5011215;28;101666;-73
2022/11/09 07:25:07;;;;;;;8.02;2.90;;;12.70;99.90;;;;;;5012335;28;98430;-73
2022/11/09 07:27:35;;;;;;;7.60;2.50;;;12.70;99.90;;;;;;5012404;28;98429;-73
2022/11/09 07:30:03;;;;;;;7.03;2.33;;;12.90;99.90;;;;;;5012250;28;98500;-72
2022/11/09 07:32:34;;;;;;;7.13;2.53;;;12.90;99.90;;;;;;5010793;28;101308;-72
2022/11/09 07:35:21;;;;;;;7.30;2.20;;;13.10;99.90;;;;;;5011729;28;99160;-73
2022/11/09 07:37:48;;;;;;;5.97;3.05;;;13.00;99.90;;;;;;5012293;28;99248;-73
2022/11/09 07:40:15;;;;;;;13.18;12.10;;;13.10;99.90;;;;;;5012552;28;104070;-73
2022/11/09 07:42:42;;;;;;;37.60;36.20;;;13.10;99.90;;;;;;5015059;28;98814;-73
2022/11/09 07:45:09;;;;;;;7.88;2.38;;;13.20;99.90;;;;;;5013998;28;99144;-72
2022/11/09 07:47:36;;;;;;;8.07;2.40;;;13.20;99.90;;;;;;5016106;28;98488;-73
2022/11/09 07:50:04;;;;;;;10.02;2.90;;;13.30;99.90;;;;;;5015294;28;99353;-73
2022/11/09 07:52:30;;;;;;;8.50;2.78;;;13.40;99.90;;;;;;5013776;28;98980;-73
2022/11/09 07:54:57;;;;;;;7.70;2.50;;;13.50;99.90;;;;;;5016324;28;97683;-73
2022/11/09 07:57:24;;;;;;;10.50;3.10;;;13.50;99.90;;;;;;5031091;28;98527;-73
2022/11/09 07:59:52;;;;;;;6.30;2.17;;;13.50;99.90;;;;;;5030772;28;99101;-72
2022/11/09 08:02:19;;;;;;;6.05;2.30;;;13.50;99.90;;;;;;5030143;28;101777;-72
2022/11/09 08:04:46;;;;;;;7.55;2.40;;;13.50;99.90;;;;;;5015752;28;98653;-73
2022/11/09 08:07:13;;;;;;;8.88;2.28;;;13.60;99.90;;;;;;5030901;28;99178;-73
2022/11/09 08:09:40;;;;;;;8.50;1.90;;;13.60;99.90;;;;;;5013795;28;101921;-72
2022/11/09 08:12:07;;;;;;;8.93;2.35;;;13.60;99.90;;;;;;5014864;28;99042;-72
2022/11/09 08:14:34;;;;;;;8.30;2.40;;;13.60;99.90;;;;;;5015677;28;98502;-72
2022/11/09 08:17:01;;;;;;;10.32;2.35;;;13.60;99.90;;;;;;5015478;28;98573;-73
2022/11/09 08:19:27;;;;;;;9.10;2.60;;;13.60;99.90;;;;;;5015082;28;108680;-72
2022/11/09 08:21:56;;;;;;;9.73;2.28;;;13.60;99.90;;;;;;5030333;28;98543;-73
2022/11/09 08:24:23;;;;;;;10.10;2.63;;;13.60;99.90;;;;;;5015225;28;98515;-72
2022/11/09 08:26:50;;;;;;;8.85;2.45;;;13.70;99.90;;;;;;5030148;28;99233;-73
2022/11/09 08:29:17;;;;;;;8.85;2.55;;;13.70;99.90;;;;;;5014662;28;99356;-73
2022/11/09 08:31:44;;;;;;;8.70;2.60;;;13.80;99.90;;;;;;5014797;28;99092;-73
2022/11/09 08:34:13;;;;;;;11.75;2.83;;;13.80;99.90;;;;;;5015140;28;98518;-73
2022/11/09 08:36:39;;;;;;;9.52;3.05;;;13.90;99.90;;;;;;5015354;28;99129;-73
2022/11/09 08:39:07;;;;;;;12.23;2.65;;;13.90;99.90;;;;;;5029864;28;101776;-73
2022/11/09 08:41:34;;;;;;;7.10;2.35;;;13.90;99.90;;;;;;5030145;28;101826;-73
2022/11/09 08:44:01;;;;;;;9.48;3.03;;;14.00;99.90;;;;;;5013905;28;99461;-73
2022/11/09 08:46:28;;;;;;;6.53;2.33;;;14.00;99.90;;;;;;4996850;28;99227;-73
2022/11/09 08:48:55;;;;;;;7.55;2.67;;;14.10;99.90;;;;;;5012900;28;100445;-72
2022/11/09 08:51:22;;;;;;;10.70;2.95;;;14.20;99.90;;;;;;5028812;28;101541;-73
2022/11/09 08:53:50;;;;;;;8.50;2.63;;;14.30;99.90;;;;;;5013028;28;98530;-73
2022/11/09 08:56:17;;;;;;;8.52;2.65;;;14.30;99.90;;;;;;5013176;28;98592;-73
2022/11/09 08:58:45;;;;;;;10.68;3.00;;;14.40;99.90;;;;;;5029625;28;102227;-73
2022/11/09 09:01:12;;;;;;;10.13;2.58;;;14.50;99.90;;;;;;5014262;28;99962;-73
2022/11/09 09:03:42;;;;;;;6.40;2.17;;;14.60;99.90;;;;;;4997651;28;98552;-73
2022/11/09 09:06:09;;;;;;;7.93;2.55;;;14.60;99.90;;;;;;5014813;28;99482;-72
2022/11/09 09:08:36;;;;;;;8.25;2.75;;;14.70;99.90;;;;;;5013058;28;109198;-73
2022/11/09 09:11:05;;;;;;;12.70;2.65;;;14.70;99.90;;;;;;5014344;28;98535;-73
2022/11/09 09:13:32;;;;;;;9.15;2.67;;;14.70;99.90;;;;;;4996377;28;98674;-73
2022/11/09 09:16:12;;;;;;;12.90;3.25;;;14.80;99.90;;;;;;5029616;28;99283;-73
2022/11/09 09:18:39;;;;;;;8.30;3.05;;;14.80;99.90;;;;;;5014352;28;99420;-73
2022/11/09 09:21:10;;;;;;;12.00;2.95;;;14.80;99.90;;;;;;5014109;28;99252;-73
2022/11/09 09:23:37;;;;;;;8.30;2.85;;;14.90;99.90;;;;;;5013294;28;98565;-73
2022/11/09 09:26:04;;;;;;;7.40;2.80;;;14.90;99.90;;;;;;5014631;28;98472;-73
2022/11/09 09:28:31;;;;;;;8.43;2.40;;;15.00;99.90;;;;;;5029292;28;100228;-73
2022/11/09 09:31:00;;;;;;;6.60;2.70;;;15.10;99.90;;;;;;5014111;28;99061;-73
2022/11/09 09:33:27;;;;;;;7.20;2.30;;;15.30;99.90;;;;;;4996351;28;97842;-73
2022/11/09 09:35:56;;;;;;;10.18;3.03;;;15.40;99.90;;;;;;4996333;28;98583;-73
2022/11/09 09:38:24;;;;;;;9.40;2.70;;;15.50;99.90;;;;;;5013636;28;99370;-73
2022/11/09 09:41:03;;;;;;;8.20;2.67;;;15.50;99.90;;;;;;5013227;28;99389;-73
2022/11/09 09:43:33;;;;;;;11.95;2.75;;;15.60;99.90;;;;;;5014378;28;98925;-73
2022/11/09 09:46:10;;;;;;;10.05;2.67;;;15.70;99.90;;;;;;5012610;28;98555;-72
2022/11/09 09:48:45;;;;;;;14.27;3.50;;;15.70;99.90;;;;;;5014045;28;99310;-73
2022/11/09 09:51:38;;;;;;;11.07;3.00;;;15.70;99.90;;;;;;5012508;28;99117;-73
2022/11/09 09:54:18;;;;;;;6.13;2.55;;;15.80;99.90;;;;;;5008714;28;98587;-73
2022/11/09 09:56:49;;;;;;;8.05;2.78;;;15.80;99.90;;;;;;5012555;28;98518;-73
2022/11/09 09:59:42;;;;;;;11.50;2.83;;;15.80;99.90;;;;;;5012683;28;98578;-73
2022/11/09 10:02:22;;;;;;;7.40;2.53;;;15.80;99.90;;;;;;5013525;28;99452;-73
2022/11/09 10:04:50;;;;;;;10.32;2.92;;;15.80;99.90;;;;;;5012292;28;98486;-73
2022/11/09 10:07:22;;;;;;;8.18;3.10;;;15.80;99.90;;;;;;5011901;28;99275;-73
2022/11/09 10:10:07;;;;;;;9.10;3.00;;;16.00;99.90;;;;;;5029017;28;100432;-73
2022/11/09 10:12:53;;;;;;;8.10;2.90;;;16.00;99.90;;;;;;5028731;28;98927;-72
2022/11/09 10:15:49;;;;;;;6.43;3.00;;;16.10;99.90;;;;;;5013767;28;99231;-73
2022/11/09 10:18:36;;;;;;;5.72;2.28;;;16.10;99.90;;;;;;4997286;28;98987;-73
2022/11/09 10:21:24;;;;;;;11.30;2.65;;;16.20;99.90;;;;;;5013296;28;99332;-73
2022/11/09 10:24:06;;;;;;;10.00;2.78;;;16.30;99.90;;;;;;5013240;28;99212;-73
2022/11/09 10:26:45;;;;;;;9.88;2.83;;;16.30;99.90;;;;;;5029099;28;98446;-73
2022/11/09 10:29:25;;;;;;;7.80;2.88;;;16.30;99.90;;;;;;5013711;28;98487;-73
2022/11/09 10:32:16;;;;;;;8.73;2.35;;;16.40;99.90;;;;;;5028540;28;102222;-73
2022/11/09 10:35:11;;;;;;;10.75;2.83;;;16.60;99.90;;;;;;5012472;28;99146;-73
2022/11/09 10:37:42;;;;;;;7.38;2.75;;;16.70;99.90;;;;;;5013412;28;98530;-73
2022/11/09 10:40:18;;;;;;;8.73;2.50;;;16.70;99.90;;;;;;5011757;28;98594;-73
2022/11/09 10:43:11;;;;;;;6.22;2.40;;;16.80;99.90;;;;;;5025760;28;98802;-73
2022/11/09 10:46:05;;;;;;;;;;;16.80;99.90;;;;;;5009736;28;98559;-73
2022/11/09 10:48:54;;;;;;;9.95;2.17;;;16.70;99.90;;;;;;5014493;28;98548;-73
2022/11/09 10:51:42;;;;;;;8.18;2.47;;;16.70;99.90;;;;;;5012212;28;98500;-73
2022/11/09 10:54:32;;;;;;;9.43;2.95;;;16.80;99.90;;;;;;5009702;28;98352;-73
2022/11/09 10:57:21;;;;;;;6.22;2.42;;;16.90;99.90;;;;;;5011955;28;99102;-73
2022/11/09 11:00:15;;;;;;;9.05;3.03;;;16.90;99.90;;;;;;5012635;28;98581;-73
2022/11/09 11:03:14;;;;;;;7.07;2.72;;;17.00;99.90;;;;;;5011187;28;99667;-73
2022/11/09 11:06:19;;;;;;;10.60;3.33;;;17.10;99.90;;;;;;5010941;28;98762;-73
2022/11/09 11:09:04;;;;;;;7.60;2.97;;;17.30;99.90;;;;;;5008675;28;98633;-73
2022/11/09 11:12:14;;;;;;;10.02;2.40;;;17.40;99.90;;;;;;5011465;28;98422;-73
2022/11/09 11:15:00;;;;;;;6.70;2.58;;;17.50;99.90;;;;;;5009840;28;98518;-73
2022/11/09 11:17:45;;;;;;;11.80;3.45;;;17.40;99.90;;;;;;5010007;28;98792;-73
2022/11/09 11:20:36;;;;;;;9.85;3.05;;;17.40;99.90;;;;;;5010650;28;98713;-73
2022/11/09 11:23:24;;;;;;;7.35;2.65;;;17.30;99.90;;;;;;5009940;28;98411;-73
2022/11/09 11:26:22;;;;;;;7.70;2.42;;;17.30;99.90;;;;;;5011222;28;98476;-73
2022/11/09 11:29:10;;;;;;;8.70;2.22;;;17.40;99.90;;;;;;5025353;28;98755;-73
2022/11/09 11:31:56;;;;;;;9.65;2.90;;;17.30;99.90;;;;;;5010062;28;99259;-73
2022/11/09 11:34:42;;;;;;;7.80;2.80;;;17.30;99.90;;;;;;5011484;28;98931;-73
2022/11/09 11:38:15;;;;;;;8.18;2.13;;;17.30;99.90;;;;;;5011673;28;98547;-73
2022/11/09 11:41:27;;;;;;;8.13;2.53;;;17.50;99.90;;;;;;5010283;28;98667;-72
2022/11/09 11:44:44;;;;;;;7.28;2.50;;;17.50;99.90;;;;;;5022949;28;98518;-73
2022/11/09 11:47:53;;;;;;;7.15;2.38;;;17.70;99.90;;;;;;5001864;28;98604;-73
2022/11/09 11:50:41;;;;;;;8.88;2.88;;;17.70;99.90;;;;;;5010249;28;98615;-73
2022/11/09 11:53:58;;;;;;;6.82;2.42;;;17.50;99.90;;;;;;5011441;28;98015;-73
2022/11/09 11:57:20;;;;;;;8.10;2.40;;;17.60;99.90;;;;;;5009408;28;98505;-73
2022/11/09 12:00:11;;;;;;;7.05;2.28;;;17.40;99.90;;;;;;5008387;28;98704;-73
2022/11/09 12:03:05;;;;;;;8.70;2.80;;;17.20;99.90;;;;;;5009412;28;99162;-73
2022/11/09 12:06:20;;;;;;;7.40;2.35;;;17.20;99.90;;;;;;5023514;28;98717;-72
2022/11/09 12:09:40;;;;;;;7.22;2.42;;;17.20;99.90;;;;;;5009383;28;98820;-73
2022/11/09 12:12:28;;;;;;;6.25;2.35;;;17.10;99.90;;;;;;4995239;28;98591;-73
2022/11/09 12:15:23;;;;;;;7.80;2.00;;;17.10;99.90;;;;;;5012421;28;98425;-73
2022/11/09 12:18:08;;;;;;;;;;;17.10;99.90;;;;;;5025808;28;98984;-72
2022/11/09 12:21:13;;;;;;;9.30;2.28;;;16.90;99.90;;;;;;5012196;28;98414;-73
2022/11/09 12:24:17;;;;;;;6.47;2.17;;;17.00;99.90;;;;;;5010562;28;97765;-73
2022/11/09 12:27:17;;;;;;;7.60;1.98;;;17.00;99.90;;;;;;5024743;28;98572;-73
2022/11/09 12:30:20;;;;;;;9.48;2.50;;;17.20;99.90;;;;;;5024447;28;98634;-73
2022/11/09 12:33:16;;;;;;;9.00;2.78;;;17.20;99.90;;;;;;5013751;28;99250;-73
2022/11/09 12:36:18;;;;;;;7.55;2.38;;;17.40;99.90;;;;;;5014906;28;98513;-73
2022/11/09 12:39:19;;;;;;;7.97;2.30;;;17.40;99.90;;;;;;5012742;28;99002;-73
2022/11/09 12:42:27;;;;;;;8.45;2.50;;;17.30;99.90;;;;;;5014723;28;98595;-73
2022/11/09 12:45:20;;;;;;;6.35;2.40;;;17.10;99.90;;;;;;5012179;28;98493;-72
2022/11/09 12:48:19;;;;;;;7.18;2.35;;;17.00;99.90;;;;;;5014990;28;98514;-73
2022/11/09 12:51:07;;;;;;;7.28;2.30;;;17.00;99.90;;;;;;5012952;28;98494;-73
2022/11/09 12:53:54;;;;;;;6.65;2.45;;;16.90;99.90;;;;;;5013324;28;98047;-73
2022/11/09 12:56:50;;;;;;;6.85;1.95;;;16.90;99.90;;;;;;5013319;28;98714;-73
2022/11/09 12:59:48;;;;;;;6.80;2.28;;;17.00;99.90;;;;;;5013440;28;98786;-73
2022/11/09 13:02:38;;;;;;;5.70;2.03;;;17.00;99.90;;;;;;5013875;28;99246;-73
2022/11/09 13:05:36;;;;;;;3.88;2.00;;;17.00;99.90;;;;;;5012135;28;98748;-73
2022/11/09 13:08:30;;;;;;;8.18;2.97;;;17.00;99.90;;;;;;5013749;28;98631;-74
2022/11/09 13:11:21;;;;;;;12.00;2.92;;;17.00;99.90;;;;;;5013226;28;98607;-78
2022/11/09 13:14:26;;;;;;;6.85;2.63;;;16.90;99.90;;;;;;5012466;28;98514;-73
2022/11/09 13:17:23;;;;;;;5.45;2.25;;;17.00;99.90;;;;;;5014000;28;98872;-73
2022/11/09 13:20:34;;;;;;;7.05;2.67;;;16.90;99.90;;;;;;5024995;28;98561;-72
2022/11/09 13:23:40;;;;;;;9.88;2.08;;;16.90;99.90;;;;;;5024956;28;97797;-72
2022/11/09 13:26:47;;;;;;;5.32;1.92;;;16.70;99.90;;;;;;5012564;28;98858;-73